Time;durP1;ratioP1;P1;durP2;ratioP2;P2;SDS_P1;SDS_P2;PMS_P1;PMS_P2;Temp;Humidity;BMP_temperature;BMP_pressure;BME280_temperature;BME280_humidity;BME280_pressure;Samples;Min_cycle;Max_cycle;Signal;HPM_P1;HPM_P2
2022/12/04 00:01:12;;;;;;;178.00;164.10;;;2.30;21.30;;;;;;5052852;28;20175;-68
2022/12/04 00:03:38;;;;;;;128.40;116.32;;;2.30;21.20;;;;;;5052206;28;20692;-68
2022/12/04 00:06:15;;;;;;;111.05;98.45;;;2.20;21.40;;;;;;5052442;28;20179;-70
2022/12/04 00:08:42;;;;;;;265.38;247.07;;;2.20;21.70;;;;;;5052301;28;20180;-69
2022/12/04 00:11:10;;;;;;;155.25;142.32;;;2.10;21.50;;;;;;5050920;28;20292;-69
2022/12/04 00:13:36;;;;;;;145.13;131.77;;;2.10;22.10;;;;;;5051931;28;20205;-69
2022/12/04 00:16:07;;;;;;;219.63;202.88;;;2.20;21.90;;;;;;5052298;28;20552;-68
2022/12/04 00:18:33;;;;;;;157.93;144.05;;;2.20;21.70;;;;;;5052788;28;20551;-69
2022/12/04 00:21:01;;;;;;;164.57;150.85;;;2.20;21.50;;;;;;5055940;28;20596;-68
2022/12/04 00:23:27;;;;;;;120.97;108.47;;;2.30;21.50;;;;;;5055627;28;20205;-69
2022/12/04 00:25:59;;;;;;;116.00;99.77;;;2.30;21.40;;;;;;5054879;28;20187;-69
2022/12/04 00:28:25;;;;;;;179.25;165.15;;;2.30;21.10;;;;;;5056311;28;20169;-69
2022/12/04 00:30:50;;;;;;;184.80;170.00;;;2.30;22.20;;;;;;5056202;28;20197;-69
2022/12/04 00:33:16;;;;;;;168.60;153.57;;;2.30;21.00;;;;;;5054078;28;20376;-69
2022/12/04 00:35:41;;;;;;;185.13;171.10;;;2.30;21.20;;;;;;5055520;28;20570;-69
2022/12/04 00:38:07;;;;;;;264.93;246.23;;;2.30;21.70;;;;;;5055359;28;20199;-69
2022/12/04 00:40:32;;;;;;;339.13;316.00;;;2.40;21.40;;;;;;5055261;28;20543;-69
2022/12/04 00:42:58;;;;;;;148.67;135.13;;;2.30;20.80;;;;;;5054821;28;20658;-69
2022/12/04 00:45:23;;;;;;;195.00;179.77;;;2.30;21.10;;;;;;5055045;28;20581;-69
2022/12/04 00:47:49;;;;;;;116.30;104.50;;;2.30;21.50;;;;;;5056087;28;20274;-70
2022/12/04 00:50:14;;;;;;;180.20;165.50;;;2.30;21.30;;;;;;5055287;28;20554;-69
2022/12/04 00:52:40;;;;;;;88.77;59.27;;;2.40;21.50;;;;;;5054505;28;20657;-69
2022/12/04 00:55:06;;;;;;;198.47;183.83;;;2.30;21.40;;;;;;5053262;28;20196;-69
2022/12/04 00:57:32;;;;;;;151.57;138.35;;;2.40;21.70;;;;;;5053311;28;20288;-69
2022/12/04 00:59:57;;;;;;;93.37;71.77;;;2.40;20.90;;;;;;5053551;28;20262;-69
2022/12/04 01:02:23;;;;;;;296.27;276.43;;;2.40;20.60;;;;;;5053776;28;20172;-69
2022/12/04 01:04:48;;;;;;;150.93;137.20;;;2.40;21.10;;;;;;5055042;28;20210;-69
2022/12/04 01:07:14;;;;;;;203.93;189.23;;;2.30;21.40;;;;;;5053554;28;20593;-69
2022/12/04 01:09:39;;;;;;;149.47;136.80;;;2.40;21.60;;;;;;5053079;28;20645;-69
2022/12/04 01:12:05;;;;;;;190.10;175.77;;;2.50;21.60;;;;;;5054675;28;20230;-69
2022/12/04 01:14:31;;;;;;;99.03;72.40;;;2.50;21.60;;;;;;5054674;28;20193;-69
2022/12/04 01:16:57;;;;;;;176.83;162.40;;;2.60;21.40;;;;;;5054606;28;20580;-69
2022/12/04 01:19:22;;;;;;;273.50;255.60;;;2.60;21.10;;;;;;5054348;28;20169;-69
2022/12/04 01:21:48;;;;;;;130.53;117.70;;;2.60;20.60;;;;;;5053885;28;20268;-69
2022/12/04 01:24:13;;;;;;;150.90;137.13;;;2.60;20.70;;;;;;5052656;28;20711;-69
2022/12/04 01:26:39;;;;;;;294.13;275.60;;;2.60;20.80;;;;;;5053943;28;20192;-69
2022/12/04 01:29:05;;;;;;;118.50;103.00;;;2.60;20.80;;;;;;5052609;28;20194;-69
2022/12/04 01:31:30;;;;;;;207.23;190.73;;;2.60;20.90;;;;;;5053546;28;20296;-68
2022/12/04 01:33:56;;;;;;;243.00;224.97;;;2.60;20.40;;;;;;5052230;28;20286;-69
2022/12/04 01:36:25;;;;;;;203.97;187.83;;;2.60;20.20;;;;;;5053687;28;20177;-69
2022/12/04 01:38:50;;;;;;;169.63;155.77;;;2.60;20.50;;;;;;5054005;28;20451;-69
2022/12/04 01:41:21;;;;;;;169.47;156.17;;;2.60;20.90;;;;;;5054244;28;20610;-68
2022/12/04 01:44:10;;;;;;;199.07;184.55;;;2.50;20.80;;;;;;5053907;28;20204;-68
2022/12/04 01:46:35;;;;;;;130.85;118.68;;;2.50;21.10;;;;;;5053802;28;20226;-68
2022/12/04 01:49:02;;;;;;;157.67;144.43;;;2.50;21.20;;;;;;5053822;28;20209;-68
2022/12/04 01:51:34;;;;;;;190.45;175.00;;;2.50;21.20;;;;;;5053407;28;20209;-69
2022/12/04 01:54:04;;;;;;;178.23;163.15;;;2.40;20.70;;;;;;5053631;28;20190;-69
2022/12/04 01:56:51;;;;;;;206.55;191.82;;;2.40;21.10;;;;;;5052865;28;20169;-69
2022/12/04 01:59:20;;;;;;;139.90;127.60;;;2.40;21.30;;;;;;5054954;28;20172;-69
2022/12/04 02:01:59;;;;;;;156.55;142.68;;;2.40;22.00;;;;;;5055049;28;20172;-69
2022/12/04 02:04:25;;;;;;;195.60;181.35;;;2.40;21.80;;;;;;5053696;28;20200;-69
2022/12/04 02:06:50;;;;;;;177.23;163.10;;;2.40;21.80;;;;;;5055789;28;20278;-69
2022/12/04 02:09:16;;;;;;;156.63;142.97;;;2.40;22.00;;;;;;5055423;28;20749;-68
2022/12/04 02:12:09;;;;;;;308.13;287.50;;;2.30;21.40;;;;;;5053287;28;20277;-68
2022/12/04 02:14:47;;;;;;;294.45;274.02;;;2.40;22.20;;;;;;5050211;28;20438;-69
2022/12/04 02:17:27;;;;;;;178.95;164.60;;;2.30;21.70;;;;;;5053549;28;20172;-69
2022/12/04 02:19:58;;;;;;;463.88;435.05;;;2.30;21.80;;;;;;5053702;28;20203;-69
2022/12/04 02:22:48;;;;;;;463.35;434.63;;;2.30;21.70;;;;;;5053227;28;20609;-69
2022/12/04 02:25:28;;;;;;;375.65;351.88;;;2.30;21.40;;;;;;5052017;28;20220;-69
2022/12/04 02:28:09;;;;;;;210.30;195.82;;;2.30;21.70;;;;;;5053517;28;20173;-69
2022/12/04 02:30:40;;;;;;;202.40;187.88;;;2.30;22.30;;;;;;5053244;28;20179;-69
2022/12/04 02:33:26;;;;;;;179.95;166.25;;;2.40;22.00;;;;;;5052346;28;20605;-69
2022/12/04 02:35:59;;;;;;;209.55;194.38;;;2.40;22.30;;;;;;5051529;28;20183;-69
2022/12/04 02:38:52;;;;;;;383.60;357.65;;;2.50;21.40;;;;;;5052889;28;20230;-69
2022/12/04 02:41:35;;;;;;;260.15;241.57;;;2.40;21.50;;;;;;5052421;28;20561;-69
2022/12/04 02:44:08;;;;;;;172.20;158.82;;;2.40;22.10;;;;;;5052848;28;20205;-69
2022/12/04 02:46:38;;;;;;;256.90;238.98;;;2.40;22.40;;;;;;5052693;28;20173;-69
2022/12/04 02:49:09;;;;;;;274.50;254.27;;;2.40;22.20;;;;;;5052970;28;20176;-69
2022/12/04 02:51:38;;;;;;;338.13;315.30;;;2.30;22.70;;;;;;5052715;28;20200;-69
2022/12/04 02:54:10;;;;;;;440.30;412.35;;;2.30;22.60;;;;;;5052629;28;20197;-69
2022/12/04 02:56:41;;;;;;;209.05;193.18;;;2.30;22.80;;;;;;5052685;28;20178;-69
2022/12/04 02:59:13;;;;;;;122.88;110.57;;;2.30;22.60;;;;;;5051694;28;20187;-68
2022/12/04 03:01:43;;;;;;;324.30;300.80;;;2.30;22.90;;;;;;5052465;28;20232;-69
2022/12/04 03:04:19;;;;;;;183.18;168.48;;;2.20;23.40;;;;;;5052270;28;20695;-68
2022/12/04 03:06:49;;;;;;;526.53;492.17;;;2.20;23.80;;;;;;5052312;28;20219;-68
2022/12/04 03:09:31;;;;;;;130.75;114.82;;;2.20;24.00;;;;;;5052840;28;20165;-68
2022/12/04 03:12:03;;;;;;;183.27;166.50;;;2.20;24.40;;;;;;5050625;28;20249;-69
2022/12/04 03:14:36;;;;;;;353.73;328.23;;;2.10;24.40;;;;;;5052501;28;20194;-69
2022/12/04 03:17:18;;;;;;;226.20;207.60;;;2.00;25.00;;;;;;5051078;28;20259;-69
2022/12/04 03:19:53;;;;;;;156.80;142.43;;;2.00;25.00;;;;;;5052378;28;20272;-68
2022/12/04 03:22:22;;;;;;;446.48;416.58;;;2.00;25.50;;;;;;5052129;28;20181;-68
2022/12/04 03:24:51;;;;;;;339.90;317.02;;;2.00;25.80;;;;;;5052102;28;20585;-69
2022/12/04 03:27:53;;;;;;;153.23;139.50;;;1.90;26.10;;;;;;5052181;28;20259;-68
2022/12/04 03:30:20;;;;;;;178.00;162.40;;;1.90;26.40;;;;;;5052224;28;20171;-68
2022/12/04 03:33:01;;;;;;;227.95;210.27;;;2.00;25.80;;;;;;5052030;28;20205;-68
2022/12/04 03:35:40;;;;;;;505.15;471.73;;;1.90;26.40;;;;;;5052597;28;20267;-67
2022/12/04 03:38:21;;;;;;;444.92;413.70;;;1.90;26.40;;;;;;5052447;28;20541;-67
2022/12/04 03:40:56;;;;;;;102.32;79.60;;;2.00;26.50;;;;;;5055540;28;20579;-68
2022/12/04 03:43:35;;;;;;;171.57;156.75;;;2.10;26.50;;;;;;5053789;28;20202;-68
2022/12/04 03:46:27;;;;;;;151.18;136.05;;;2.10;25.90;;;;;;5053360;28;20661;-67
2022/12/04 03:48:59;;;;;;;371.48;345.38;;;2.10;26.30;;;;;;5053038;28;20477;-67
2022/12/04 03:51:37;;;;;;;292.65;271.70;;;2.10;26.60;;;;;;5052794;28;20204;-68
2022/12/04 03:54:10;;;;;;;236.20;219.35;;;2.10;26.20;;;;;;5054462;28;20260;-68
2022/12/04 03:56:51;;;;;;;167.38;151.43;;;2.10;26.50;;;;;;5055052;28;20181;-68
2022/12/04 03:59:25;;;;;;;170.98;157.07;;;2.10;26.50;;;;;;5056047;28;20223;-68
2022/12/04 04:01:55;;;;;;;164.20;150.13;;;2.20;26.00;;;;;;5055995;28;20198;-68
2022/12/04 04:04:27;;;;;;;243.35;224.80;;;2.30;26.00;;;;;;5056502;28;20208;-68
2022/12/04 04:07:02;;;;;;;497.17;463.80;;;2.30;25.20;;;;;;5055196;28;20662;-68
2022/12/04 04:09:32;;;;;;;112.97;94.22;;;2.30;24.80;;;;;;5056513;28;20176;-68
2022/12/04 04:12:05;;;;;;;199.68;183.63;;;2.40;24.60;;;;;;5054411;28;20212;-68
2022/12/04 04:26:12;;;;;;;194.52;178.85;;;2.40;23.30;;;;;;5056524;28;20256;-68
2022/12/04 04:28:40;;;;;;;138.07;125.45;;;2.50;22.70;;;;;;5056452;28;20177;-68
2022/12/04 04:31:37;;;;;;;203.38;189.23;;;2.50;22.10;;;;;;5055107;28;20186;-68
2022/12/04 04:34:21;;;;;;;176.45;162.90;;;2.50;23.00;;;;;;5054482;28;20201;-69
2022/12/04 04:37:10;;;;;;;99.25;79.80;;;2.50;22.40;;;;;;5055382;28;20204;-68
2022/12/04 04:39:46;;;;;;;105.18;93.40;;;2.50;21.80;;;;;;5055328;28;20173;-68
2022/12/04 04:42:21;;;;;;;131.18;113.10;;;2.50;22.10;;;;;;5053655;28;20591;-68
2022/12/04 04:44:59;;;;;;;98.88;84.18;;;2.50;22.30;;;;;;5055304;28;20194;-68
2022/12/04 04:47:30;;;;;;;335.67;313.83;;;2.60;21.50;;;;;;5055421;28;20174;-68
2022/12/04 04:49:57;;;;;;;197.98;183.90;;;2.50;21.20;;;;;;5055169;28;20329;-68
2022/12/04 04:52:23;;;;;;;163.02;149.55;;;2.50;21.60;;;;;;5054923;28;20206;-68
2022/12/04 04:54:49;;;;;;;132.43;119.65;;;2.40;21.60;;;;;;5054899;28;20216;-68
2022/12/04 04:57:28;;;;;;;218.90;203.50;;;2.40;21.20;;;;;;5055026;28;20286;-68
2022/12/04 04:59:54;;;;;;;254.65;238.27;;;2.50;21.40;;;;;;5055085;28;20172;-67
2022/12/04 05:02:19;;;;;;;185.43;170.53;;;2.50;21.50;;;;;;5054602;28;20649;-68
2022/12/04 05:04:45;;;;;;;181.80;167.70;;;2.50;21.00;;;;;;5054403;28;20207;-68
2022/12/04 05:07:11;;;;;;;149.03;135.83;;;2.50;21.40;;;;;;5054780;28;20772;-68
2022/12/04 05:09:36;;;;;;;400.17;375.43;;;2.60;20.70;;;;;;5054693;28;20206;-68
2022/12/04 05:12:02;;;;;;;223.37;208.00;;;2.40;20.20;;;;;;5054368;28;20249;-68
2022/12/04 05:14:27;;;;;;;185.03;170.73;;;2.40;21.30;;;;;;5054604;28;20215;-68
2022/12/04 05:16:53;;;;;;;156.87;144.03;;;2.40;21.10;;;;;;5054613;28;20715;-68
2022/12/04 05:22:03;;;;;;;196.57;181.95;;;2.50;21.50;;;;;;5054295;28;20192;-68
2022/12/04 05:24:29;;;;;;;130.82;118.28;;;2.40;21.00;;;;;;5098546;22;20225;-69
2022/12/04 05:26:54;;;;;;;243.43;227.87;;;2.30;21.50;;;;;;5109611;28;20200;-70
2022/12/04 05:29:20;;;;;;;247.93;231.43;;;2.40;21.70;;;;;;5093852;28;20163;-71
2022/12/04 05:31:45;;;;;;;171.00;157.67;;;2.40;21.90;;;;;;5093455;28;20202;-70
2022/12/04 05:34:11;;;;;;;199.93;184.60;;;2.40;21.50;;;;;;5093745;28;20192;-70
2022/12/04 05:36:36;;;;;;;309.13;289.10;;;2.50;21.30;;;;;;5093667;28;20181;-69
2022/12/04 05:39:02;;;;;;;205.07;189.57;;;2.40;20.80;;;;;;5092301;28;20176;-70
2022/12/04 05:41:28;;;;;;;233.37;216.50;;;2.30;21.10;;;;;;5093538;28;20632;-72
2022/12/04 05:43:53;;;;;;;94.80;79.97;;;2.30;21.40;;;;;;5093423;28;20203;-70
2022/12/04 05:46:19;;;;;;;160.70;147.80;;;2.40;21.50;;;;;;5093532;28;20175;-70
2022/12/04 05:48:45;;;;;;;168.77;155.43;;;2.50;21.40;;;;;;5093605;28;20171;-71
2022/12/04 05:51:11;;;;;;;225.50;209.90;;;2.40;21.30;;;;;;5093313;28;20659;-72
2022/12/04 05:53:37;;;;;;;118.27;106.80;;;2.40;21.10;;;;;;5092599;28;20200;-70
2022/12/04 05:56:04;;;;;;;126.15;109.47;;;2.40;21.00;;;;;;5092033;28;20228;-70
2022/12/04 05:58:32;;;;;;;251.65;236.30;;;2.40;21.00;;;;;;5091962;28;20183;-70
2022/12/04 06:00:58;;;;;;;219.05;203.93;;;2.30;21.30;;;;;;5093197;28;20174;-70
2022/12/04 06:03:23;;;;;;;166.97;153.63;;;2.40;21.50;;;;;;5092812;28;20646;-70
2022/12/04 06:05:49;;;;;;;166.47;152.87;;;2.40;21.20;;;;;;5091776;28;20175;-70
2022/12/04 06:08:14;;;;;;;140.47;128.43;;;2.40;21.20;;;;;;5091560;28;20185;-69
2022/12/04 06:10:40;;;;;;;130.53;118.80;;;2.40;21.10;;;;;;5093103;28;20258;-70
2022/12/04 06:13:06;;;;;;;151.27;138.30;;;2.40;21.70;;;;;;5091487;28;20241;-69
2022/12/04 06:15:37;;;;;;;287.60;269.20;;;2.50;21.20;;;;;;5093093;28;20234;-70
2022/12/04 06:18:03;;;;;;;254.05;238.35;;;2.50;21.40;;;;;;5092384;28;20561;-69
2022/12/04 06:20:28;;;;;;;234.47;219.23;;;2.60;20.90;;;;;;5091544;28;20171;-70
2022/12/04 06:22:54;;;;;;;231.40;216.03;;;2.60;20.50;;;;;;5092388;28;20408;-70
2022/12/04 06:25:19;;;;;;;387.50;363.10;;;2.70;20.50;;;;;;5092656;28;20220;-70
2022/12/04 06:27:45;;;;;;;263.37;247.23;;;2.70;20.50;;;;;;5092765;28;20198;-69
2022/12/04 06:30:11;;;;;;;131.27;119.03;;;2.60;20.60;;;;;;5092733;28;20179;-70
2022/12/04 06:32:36;;;;;;;300.90;280.53;;;2.60;21.10;;;;;;5092345;28;20195;-70
2022/12/04 06:35:03;;;;;;;292.17;272.57;;;2.60;20.90;;;;;;5092444;28;20573;-70
2022/12/04 06:37:28;;;;;;;233.10;215.75;;;2.60;20.80;;;;;;5092446;28;20259;-70
2022/12/04 06:39:54;;;;;;;306.07;286.47;;;2.40;22.10;;;;;;5092502;28;20206;-71
2022/12/04 06:42:19;;;;;;;202.47;186.23;;;2.30;22.60;;;;;;5090990;28;20176;-69
2022/12/04 06:44:45;;;;;;;184.77;170.20;;;2.30;23.20;;;;;;5092369;28;20204;-70
2022/12/04 06:47:11;;;;;;;402.63;376.00;;;2.40;23.20;;;;;;5092379;28;20184;-70
2022/12/04 06:49:36;;;;;;;184.97;170.67;;;2.40;23.30;;;;;;5092380;28;20184;-71
2022/12/04 06:52:02;;;;;;;338.27;315.33;;;2.30;23.20;;;;;;5091904;28;20264;-69
2022/12/04 06:54:28;;;;;;;340.63;317.35;;;2.30;23.70;;;;;;5092477;28;20199;-69
2022/12/04 06:56:53;;;;;;;196.83;181.43;;;2.20;23.90;;;;;;5092359;28;20519;-69
2022/12/04 06:59:19;;;;;;;144.03;130.97;;;2.20;24.60;;;;;;5092474;28;20233;-69
2022/12/04 07:01:44;;;;;;;334.07;310.80;;;2.20;24.60;;;;;;5092063;28;20646;-69
2022/12/04 07:04:10;;;;;;;142.63;129.10;;;2.20;24.70;;;;;;5092198;28;20194;-69
2022/12/04 07:06:37;;;;;;;210.93;194.60;;;2.20;24.90;;;;;;5092121;28;20185;-69
2022/12/04 07:09:06;;;;;;;352.08;327.42;;;2.30;24.90;;;;;;5092038;28;20175;-70
2022/12/04 07:11:32;;;;;;;212.23;195.75;;;2.20;24.50;;;;;;5091800;28;20199;-68
2022/12/04 07:13:58;;;;;;;233.70;216.10;;;2.20;25.00;;;;;;5091869;28;20693;-69
2022/12/04 07:16:25;;;;;;;301.20;280.33;;;2.20;24.60;;;;;;5092072;28;20171;-68
2022/12/04 07:18:55;;;;;;;334.42;312.33;;;2.30;25.00;;;;;;5092054;28;20171;-69
2022/12/04 07:21:23;;;;;;;186.73;172.18;;;2.20;24.90;;;;;;5091974;28;20625;-69
2022/12/04 07:23:51;;;;;;;212.55;196.63;;;2.30;25.00;;;;;;5091491;28;20219;-70
2022/12/04 07:26:17;;;;;;;106.68;92.25;;;2.40;24.80;;;;;;5092045;28;20701;-67
2022/12/04 07:28:46;;;;;;;473.63;444.00;;;2.50;24.60;;;;;;5094571;28;20187;-69
2022/12/04 07:31:14;;;;;;;237.63;221.48;;;2.50;24.50;;;;;;5096113;28;20171;-69
2022/12/04 07:33:40;;;;;;;214.73;197.63;;;2.60;24.50;;;;;;5094486;28;20272;-69
2022/12/04 07:36:09;;;;;;;278.35;259.02;;;2.60;24.00;;;;;;5094695;28;20182;-69
2022/12/04 07:38:34;;;;;;;278.33;259.20;;;2.40;23.40;;;;;;5094502;28;20171;-69
2022/12/04 07:41:02;;;;;;;532.67;498.83;;;2.40;23.80;;;;;;5095986;28;20228;-69
2022/12/04 07:43:29;;;;;;;434.55;405.10;;;2.40;23.70;;;;;;5095440;28;20171;-69
2022/12/04 07:45:55;;;;;;;233.93;216.68;;;2.40;24.10;;;;;;5095908;28;20651;-69
2022/12/04 07:48:20;;;;;;;365.00;340.80;;;2.30;23.60;;;;;;5094172;28;20179;-69
2022/12/04 07:50:46;;;;;;;282.60;263.13;;;2.40;24.20;;;;;;5095679;28;20181;-69
2022/12/04 07:53:12;;;;;;;275.10;254.53;;;2.50;24.30;;;;;;5095146;28;20564;-70
2022/12/04 07:55:38;;;;;;;308.37;286.83;;;2.40;24.90;;;;;;5095579;28;20265;-69
2022/12/04 07:58:03;;;;;;;447.47;417.67;;;2.40;24.50;;;;;;5095498;28;20407;-69
2022/12/04 08:00:29;;;;;;;158.27;144.07;;;2.40;24.40;;;;;;5095683;28;20175;-69
2022/12/04 08:02:54;;;;;;;425.07;396.20;;;2.40;24.70;;;;;;5090532;28;20194;-69
2022/12/04 08:05:20;;;;;;;395.50;369.27;;;2.40;24.70;;;;;;5095187;28;20268;-70
2022/12/04 08:07:46;;;;;;;218.87;201.50;;;2.40;24.60;;;;;;5096215;28;20262;-69
2022/12/04 08:10:12;;;;;;;453.50;423.93;;;2.30;24.80;;;;;;5098772;28;20417;-69
2022/12/04 08:12:37;;;;;;;325.88;302.35;;;2.40;24.60;;;;;;5097910;28;20270;-69
2022/12/04 08:15:04;;;;;;;363.63;338.10;;;2.40;24.60;;;;;;5095762;28;20739;-70
2022/12/04 08:17:30;;;;;;;313.42;290.00;;;2.40;24.50;;;;;;5095116;28;20174;-70
2022/12/04 08:19:55;;;;;;;194.53;179.73;;;2.40;24.50;;;;;;5089604;28;20633;-70
2022/12/04 08:22:21;;;;;;;264.70;245.37;;;2.50;24.60;;;;;;5092329;28;20261;-69
2022/12/04 08:24:47;;;;;;;291.30;270.43;;;2.60;24.00;;;;;;5094412;28;20578;-69
2022/12/04 08:27:13;;;;;;;244.10;225.87;;;2.50;24.20;;;;;;5094757;28;20187;-69
2022/12/04 08:29:38;;;;;;;315.90;292.33;;;2.40;24.10;;;;;;5093538;28;20236;-69
2022/12/04 08:32:04;;;;;;;344.30;320.90;;;2.50;24.70;;;;;;5094254;28;20204;-69
2022/12/04 08:34:30;;;;;;;275.53;255.47;;;2.50;24.20;;;;;;5095050;28;20247;-69
2022/12/04 08:36:55;;;;;;;551.20;514.43;;;2.50;24.70;;;;;;5094802;28;20417;-69
2022/12/04 08:39:21;;;;;;;116.10;102.83;;;2.60;24.10;;;;;;5093902;28;20681;-69
2022/12/04 08:41:46;;;;;;;240.50;223.50;;;2.70;23.40;;;;;;5094420;28;20174;-69
2022/12/04 08:44:12;;;;;;;238.07;220.77;;;2.80;23.00;;;;;;5094670;28;20569;-69
2022/12/04 08:46:38;;;;;;;218.80;203.60;;;2.70;22.80;;;;;;5094328;28;20184;-70
2022/12/04 08:49:04;;;;;;;426.17;398.75;;;2.70;23.10;;;;;;5094894;28;20178;-69
2022/12/04 08:51:32;;;;;;;250.70;232.53;;;2.80;22.90;;;;;;5094174;28;20206;-69
2022/12/04 08:54:00;;;;;;;133.43;120.38;;;2.70;22.80;;;;;;5094487;28;20473;-69
2022/12/04 08:56:27;;;;;;;292.45;274.00;;;2.80;23.00;;;;;;5089272;28;20172;-69
2022/12/04 08:58:55;;;;;;;340.70;317.88;;;2.90;22.40;;;;;;5086484;28;20187;-69
2022/12/04 09:01:20;;;;;;;338.80;316.70;;;2.80;22.10;;;;;;5074008;28;20172;-70
2022/12/04 09:03:46;;;;;;;287.90;266.33;;;2.80;22.50;;;;;;5072701;28;20193;-70
2022/12/04 09:06:13;;;;;;;141.63;127.83;;;2.90;22.90;;;;;;5074162;28;20181;-69
2022/12/04 09:08:39;;;;;;;282.92;262.08;;;2.80;22.90;;;;;;5072824;28;20638;-70
2022/12/04 09:11:08;;;;;;;311.17;290.90;;;2.90;22.90;;;;;;5072997;28;20217;-69
2022/12/04 09:13:34;;;;;;;222.02;203.75;;;2.80;22.90;;;;;;5073552;28;20189;-70
2022/12/04 09:16:03;;;;;;;243.85;225.40;;;2.80;22.90;;;;;;5073669;28;20295;-72
2022/12/04 09:18:29;;;;;;;436.05;407.05;;;2.80;22.90;;;;;;5073804;28;20171;-70
2022/12/04 09:21:00;;;;;;;362.47;336.93;;;2.70;22.80;;;;;;5089574;28;20181;-69
2022/12/04 09:23:26;;;;;;;518.38;485.85;;;2.80;22.90;;;;;;5093438;28;20541;-71
2022/12/04 09:25:52;;;;;;;295.83;276.27;;;2.90;23.00;;;;;;5094296;28;20183;-70
2022/12/04 09:28:18;;;;;;;422.40;394.90;;;2.90;23.30;;;;;;5094072;28;20177;-68
2022/12/04 09:30:44;;;;;;;292.37;272.40;;;2.80;22.90;;;;;;5093310;28;20201;-69
2022/12/04 09:33:10;;;;;;;353.98;330.65;;;2.80;22.90;;;;;;5093286;28;20208;-68
2022/12/04 09:35:37;;;;;;;263.87;244.47;;;2.80;22.90;;;;;;5093448;28;20179;-69
2022/12/04 09:38:03;;;;;;;429.85;401.45;;;2.90;23.40;;;;;;5093427;28;20499;-69
2022/12/04 09:40:36;;;;;;;236.33;220.80;;;2.90;22.90;;;;;;5093373;28;20266;-69
2022/12/04 09:43:43;;;;;;;397.65;371.75;;;2.80;22.90;;;;;;5092997;28;20195;-69
2022/12/04 09:46:13;;;;;;;324.65;302.80;;;2.80;22.90;;;;;;5069596;28;20184;-70
2022/12/04 09:48:42;;;;;;;360.95;336.55;;;2.80;22.90;;;;;;5085545;28;20187;-71
2022/12/04 09:51:17;;;;;;;369.40;344.42;;;2.80;22.90;;;;;;5069292;28;20675;-70
2022/12/04 09:53:49;;;;;;;330.75;309.33;;;2.70;23.00;;;;;;5069982;28;21559;-70
2022/12/04 09:56:18;;;;;;;366.17;341.67;;;2.70;23.60;;;;;;5072525;28;20171;-70
2022/12/04 09:58:46;;;;;;;354.25;332.33;;;2.60;23.70;;;;;;5104935;28;20192;-70
2022/12/04 10:01:33;;;;;;;462.55;431.77;;;2.60;23.60;;;;;;5089616;28;20237;-72
2022/12/04 10:03:59;;;;;;;357.25;332.13;;;2.70;23.80;;;;;;5104774;28;20195;-72
2022/12/04 10:06:38;;;;;;;245.57;226.67;;;2.70;23.90;;;;;;5089665;28;20233;-74
2022/12/04 10:09:23;;;;;;;302.27;281.40;;;2.80;24.20;;;;;;5086778;28;20656;-71
2022/12/04 10:12:22;;;;;;;264.77;246.93;;;2.80;24.00;;;;;;5088032;28;20207;-71
2022/12/04 10:15:00;;;;;;;506.30;473.25;;;2.90;23.60;;;;;;5091851;28;20210;-71
2022/12/04 10:17:43;;;;;;;283.33;262.50;;;2.90;23.70;;;;;;5085203;28;20186;-69
2022/12/04 10:20:19;;;;;;;214.57;199.43;;;3.00;23.60;;;;;;5088667;28;20190;-70
2022/12/04 10:23:11;;;;;;;271.42;253.95;;;3.00;23.50;;;;;;5088379;28;20680;-69
2022/12/04 10:25:38;;;;;;;369.35;345.13;;;3.10;23.50;;;;;;5088988;28;20191;-70
2022/12/04 10:28:21;;;;;;;265.48;249.07;;;3.10;23.10;;;;;;5088731;28;20191;-72
2022/12/04 10:30:48;;;;;;;327.58;303.42;;;3.10;23.10;;;;;;5089080;28;20180;-71
2022/12/04 10:33:27;;;;;;;367.35;344.85;;;3.10;23.10;;;;;;5085357;28;20208;-71
2022/12/04 10:35:53;;;;;;;297.38;276.35;;;3.10;23.10;;;;;;5101060;28;20185;-71
2022/12/04 10:38:50;;;;;;;453.23;424.65;;;3.10;23.10;;;;;;5092185;28;20182;-71
2022/12/04 10:41:46;;;;;;;403.70;377.25;;;3.20;23.10;;;;;;5091375;28;20180;-70
2022/12/04 10:44:16;;;;;;;436.13;407.95;;;2.90;22.90;;;;;;5091633;28;20251;-71
2022/12/04 10:46:42;;;;;;;347.45;323.42;;;2.80;23.80;;;;;;5091519;28;20184;-69
2022/12/04 10:49:21;;;;;;;211.67;194.47;;;2.80;24.40;;;;;;5088541;28;20183;-68
2022/12/04 10:51:47;;;;;;;363.42;339.35;;;2.90;24.70;;;;;;5091914;28;20229;-71
2022/12/04 10:54:20;;;;;;;103.83;76.83;;;3.00;24.30;;;;;;5092507;28;20759;-70
2022/12/04 10:56:54;;;;;;;116.22;103.90;;;2.90;24.90;;;;;;5099978;28;20204;-71
2022/12/04 10:59:20;;;;;;;320.10;299.38;;;2.90;24.80;;;;;;5070861;28;20235;-70
2022/12/04 11:01:46;;;;;;;474.70;442.42;;;2.90;25.00;;;;;;5075425;28;20217;-70
2022/12/04 11:04:24;;;;;;;329.77;309.73;;;3.00;25.30;;;;;;5071369;28;20237;-70
2022/12/04 11:07:01;;;;;;;264.63;245.65;;;2.90;24.50;;;;;;5070627;28;20224;-70
2022/12/04 11:09:28;;;;;;;227.05;210.45;;;3.10;24.90;;;;;;5072055;28;20541;-70
2022/12/04 11:12:08;;;;;;;470.30;441.05;;;3.10;24.70;;;;;;5071530;28;20259;-72
2022/12/04 11:14:35;;;;;;;229.77;213.03;;;3.10;24.60;;;;;;5051670;28;20589;-70
2022/12/04 11:17:05;;;;;;;167.00;152.80;;;3.20;24.90;;;;;;5050511;28;20430;-70
2022/12/04 11:19:35;;;;;;;243.82;225.25;;;3.30;24.30;;;;;;5057083;28;20192;-70
2022/12/04 11:22:13;;;;;;;298.53;280.23;;;3.40;24.10;;;;;;5070619;28;20183;-71
2022/12/04 11:24:41;;;;;;;253.00;234.15;;;3.20;24.20;;;;;;5098079;22;21008;-69
2022/12/04 11:27:17;;;;;;;295.13;275.95;;;3.40;23.90;;;;;;5079955;28;20636;-69
2022/12/04 11:29:45;;;;;;;149.63;136.77;;;3.50;24.70;;;;;;5079973;28;20180;-69
2022/12/04 11:32:23;;;;;;;346.15;324.63;;;3.60;23.40;;;;;;5076930;28;20225;-68
2022/12/04 11:34:51;;;;;;;216.68;199.65;;;3.50;23.60;;;;;;5061726;28;20330;-68
2022/12/04 11:37:23;;;;;;;210.35;195.45;;;3.70;23.50;;;;;;5062465;28;20173;-68
2022/12/04 11:39:51;;;;;;;310.85;290.55;;;3.70;23.30;;;;;;5060918;28;20179;-69
2022/12/04 11:42:23;;;;;;;363.77;342.93;;;3.90;23.00;;;;;;5061867;28;20643;-68
2022/12/04 11:44:51;;;;;;;260.83;242.23;;;3.80;23.20;;;;;;5067543;28;20470;-69
2022/12/04 11:47:19;;;;;;;299.77;279.03;;;3.90;22.40;;;;;;5082972;28;20823;-70
2022/12/04 11:49:56;;;;;;;375.90;354.13;;;3.90;21.50;;;;;;5081290;28;20420;-68
2022/12/04 11:52:40;;;;;;;290.97;271.00;;;4.00;21.90;;;;;;5076584;28;20458;-68
2022/12/04 11:55:11;;;;;;;368.83;347.87;;;4.00;21.30;;;;;;5070477;28;20520;-70
2022/12/04 11:58:20;;;;;;;391.30;365.17;;;4.00;21.30;;;;;;5065355;28;20923;-71
2022/12/04 12:01:13;;;;;;;464.67;435.47;;;3.80;21.80;;;;;;5050170;28;20428;-72
2022/12/04 12:03:52;;;;;;;429.85;402.90;;;3.60;22.50;;;;;;5075034;28;20460;-69
2022/12/04 12:06:31;;;;;;;215.70;199.57;;;3.50;23.40;;;;;;5069999;28;20184;-70
2022/12/04 12:09:28;;;;;;;421.83;397.58;;;3.60;23.60;;;;;;5050357;28;20204;-70
2022/12/04 12:12:08;;;;;;;479.37;448.93;;;3.80;23.50;;;;;;5064215;28;20196;-70
2022/12/04 12:15:01;;;;;;;386.75;360.90;;;3.70;22.80;;;;;;5055940;28;20467;-70
2022/12/04 12:17:46;;;;;;;127.22;114.40;;;3.50;23.40;;;;;;5050750;28;20266;-70
2022/12/04 12:20:17;;;;;;;174.23;158.55;;;3.50;23.80;;;;;;5055138;28;20220;-70
2022/12/04 12:22:55;;;;;;;276.88;258.67;;;3.40;24.40;;;;;;5054599;28;20184;-69
2022/12/04 12:25:31;;;;;;;329.52;304.70;;;3.50;24.30;;;;;;5058815;28;20216;-69
2022/12/04 12:28:15;;;;;;;277.58;255.93;;;3.60;24.20;;;;;;5054758;28;20181;-69
2022/12/04 12:31:07;;;;;;;343.98;321.77;;;3.50;23.80;;;;;;5053193;28;20179;-68
2022/12/04 12:34:04;;;;;;;145.73;131.23;;;3.30;24.60;;;;;;5065834;28;20203;-70
2022/12/04 12:36:35;;;;;;;382.83;357.10;;;3.40;24.60;;;;;;5066049;28;20450;-69
2022/12/04 12:39:08;;;;;;;157.68;143.93;;;3.50;23.50;;;;;;5059924;28;20686;-70
2022/12/04 12:41:49;;;;;;;240.73;223.40;;;3.60;23.40;;;;;;5071801;28;20184;-69
2022/12/04 12:44:18;;;;;;;336.65;314.67;;;3.60;23.50;;;;;;5071811;28;20204;-70
2022/12/04 12:46:52;;;;;;;288.00;265.83;;;3.70;24.00;;;;;;5071914;28;20673;-69
2022/12/04 12:49:43;;;;;;;391.58;363.80;;;3.70;24.00;;;;;;5071839;28;20426;-70
2022/12/04 12:52:16;;;;;;;400.75;373.13;;;3.50;23.90;;;;;;5071667;28;20615;-71